Aérodrome :
LOGIN :

S'inscrire | Disclaimer

   EN    FR    IT 

 










Légende :    VFR   VFR Marginal   IFR   IFR Intensif   IFR Très Intensif
Visi : 
Plafond : 
>= 8 km
>= 3000ft
5 à 8 km
1000 à 3000 ft
1500m à 5 km
500 à 1000 ft
800 à 1500m
200 à 500 ft
< 800m
< 200 ft
Symboles :   Orages  Brouillard  Fortes neiges  Fortes précipitations  Vent > 20 kt
SIGMETs :   Divers  Orages  Givrage  Turbulence  Onde Orograph.  Cendres Volcan.







- Altitude de l'aérodrome : 268 ft
- Code IATA : BFS
- Voir les cartes d'approche


EGAA - Belfast Aldergrove

DERNIER METAR :
  • 230450Z 19007KT CAVOK 02/01 Q0981

METARs EXPIRÉS :
  • 230420Z AUTO 20008KT 9999 NCD 02/01 Q0981
  • 230350Z AUTO 21010KT 9999 NCD 03/02 Q0981
  • 230320Z AUTO 21011KT 9999 NCD 02/02 Q0981
  • 230250Z 22010KT CAVOK 02/01 Q0980
  • 230220Z 21009KT 9999 FEW024 SCT030 02/02 Q0980

TAF TAF EGAA
Valide du 23 à 00h jusqu'au 24 à 00h UTC


222302Z 2300/2324 23010KT 9999 FEW008
TEMPO 2300/2301 BKN008
PROB30
TEMPO 2303/2305 BKN006
TEMPO 2305/2310 9000 RA BKN006
TEMPO 2310/2316 25016G26KT 7000 SHRA BKN010CB
PROB40 2322/2324 3000 BR BKN001
Pas de NOTAMs connus pour ce terrain.
1 SIGMET publié pour la FIR Scottish (EGPX) :
 
Turbulence forte
EGPX SIGMET 01 VALID 230200/230600 EGRR
EGPX SCOTTISH FIR SEV TURB FCST SE OF LINE N5500 E00126 - N5756 E00327 SFC/FL060 MOV E 15KT NC=



MET'MAP, la Météo Aéronautique d'un coup d'oeil ! - Copyright ORBIFLY Décembre 2007 - Disclaimer

ORBIFLY MET'MAP TEAM :

Programmation & Développement : Alexandra Zaïnal
Conception & Développement : Baudouin d'Aumeries
Co-Programmation & Développement : Marc-Olivier Méhu
Soutien technique & logistique : Manuel Goepfert

Contact : metmap@orbifly.com




SOURCES & CREDITS :

   NOAA